Big Falls, Minnesota
Current Conditions -  °F | °C
As of 3:33 PM on Friday 28 Nov 2014 (Local Time) from KFOZ Reporting Station
Light Snow Light Snow  
Wind Chill: 16°   Ceiling: 7500
Heat Index: 16°   Visibility: 10mi
Dew Point:   Wind: 3mph
Humidity: 73%   Direction: 80°E
Pressure: 29.83"   Gusts: NA
Location:  48.19°N, 93.81°W
Report Text: KFOZ 282133Z AUTO 08003KT 10SM -SN BKN075 M09/M13 A2983 RMK AO2
Loading
Personal Weather Stations






























Interactive Weather Map New forecast layout! Learn more

10-Day Weather Forecast

Advertisements
Track Severe Weather on mobile